Time;durP1;ratioP1;P1;durP2;ratioP2;P2;SDS_P1;SDS_P2;PMS_P1;PMS_P2;Temp;Humidity;BMP_temperature;BMP_pressure;BME280_temperature;BME280_humidity;BME280_pressure;Samples;Min_cycle;Max_cycle;Signal;HPM_P1;HPM_P2
2022/06/18 00:00:24;;;;;;;4.13;3.83;;;18.50;99.90;;;;;;5015141;28;20178;-77
2022/06/18 00:02:50;;;;;;;4.20;3.90;;;18.50;99.90;;;;;;5023442;28;20193;-77
2022/06/18 00:05:18;;;;;;;4.35;3.97;;;18.50;99.90;;;;;;5014924;28;20560;-77
2022/06/18 00:07:48;;;;;;;4.13;3.83;;;18.50;99.90;;;;;;5016135;28;20632;-76
2022/06/18 00:10:17;;;;;;;3.95;3.65;;;18.50;99.90;;;;;;5016009;28;20181;-77
2022/06/18 00:15:35;;;;;;;4.70;4.05;;;18.40;99.90;;;;;;5015841;28;20223;-76
2022/06/18 00:18:02;;;;;;;4.68;3.95;;;18.40;99.90;;;;;;5015818;28;20197;-78
2022/06/18 00:20:33;;;;;;;4.22;3.85;;;18.30;99.90;;;;;;5031260;28;20173;-78
2022/06/18 00:23:01;;;;;;;4.63;3.95;;;18.30;99.90;;;;;;5015374;28;20255;-77
2022/06/18 00:25:30;;;;;;;4.15;3.78;;;18.30;99.90;;;;;;5033676;28;20666;-77
2022/06/18 00:27:56;;;;;;;3.95;3.60;;;18.20;99.90;;;;;;5035640;28;20177;-77
2022/06/18 00:30:26;;;;;;;3.97;3.53;;;18.20;99.90;;;;;;5034040;28;20765;-77
2022/06/18 00:32:51;;;;;;;4.25;3.85;;;18.10;99.90;;;;;;5035379;28;20574;-77
2022/06/18 00:35:18;;;;;;;3.83;3.53;;;18.00;99.90;;;;;;5031218;28;20209;-77
2022/06/18 00:37:45;;;;;;;4.18;3.55;;;17.90;99.90;;;;;;5032446;28;20263;-80
2022/06/18 00:40:19;;;;;;;3.97;3.50;;;18.00;99.90;;;;;;5018080;28;20173;-80
2022/06/18 00:42:45;;;;;;;4.43;4.13;;;18.00;99.90;;;;;;5018954;28;20192;-80
2022/06/18 00:45:15;;;;;;;4.70;4.30;;;18.00;99.90;;;;;;5018068;28;20173;-80
2022/06/18 00:48:07;;;;;;;4.40;4.00;;;17.90;99.90;;;;;;5017763;28;20216;-80
2022/06/18 00:50:38;;;;;;;4.30;3.90;;;17.90;99.90;;;;;;5034466;28;20682;-79
2022/06/18 00:53:21;;;;;;;3.70;3.40;;;17.90;99.90;;;;;;5035806;28;20251;-80
2022/06/18 00:56:00;;;;;;;6.05;3.30;;;17.80;99.90;;;;;;5037362;28;20595;-80
2022/06/18 00:58:42;;;;;;;4.00;3.70;;;17.80;99.90;;;;;;5023341;28;20726;-80
2022/06/18 01:01:22;;;;;;;3.80;3.60;;;17.70;99.90;;;;;;5023019;28;20181;-79
2022/06/18 01:03:50;;;;;;;3.90;3.63;;;17.70;99.90;;;;;;5035962;28;20173;-79
2022/06/18 01:06:33;;;;;;;4.65;4.30;;;17.70;99.90;;;;;;5022496;28;20526;-79
2022/06/18 01:09:13;;;;;;;4.60;4.20;;;17.60;99.90;;;;;;5022407;28;20198;-79
2022/06/18 01:11:40;;;;;;;4.07;3.75;;;17.50;99.90;;;;;;5022790;28;20201;-79
2022/06/18 01:14:08;;;;;;;4.25;3.92;;;17.50;99.90;;;;;;5014335;28;20197;-79
2022/06/18 01:16:35;;;;;;;4.82;4.05;;;17.40;99.90;;;;;;5014511;28;20177;-79
2022/06/18 01:19:03;;;;;;;4.13;3.72;;;17.40;99.90;;;;;;5014650;28;20234;-79
2022/06/18 01:21:40;;;;;;;4.03;3.72;;;17.30;99.90;;;;;;5014594;28;20558;-79
2022/06/18 01:24:18;;;;;;;4.50;4.20;;;17.20;99.90;;;;;;5015209;28;20181;-79
2022/06/18 01:26:46;;;;;;;4.10;3.80;;;17.20;99.90;;;;;;5014559;28;20182;-79
2022/06/18 01:29:12;;;;;;;3.88;3.50;;;17.20;99.90;;;;;;5014399;28;20188;-80
2022/06/18 01:31:38;;;;;;;3.80;3.60;;;17.20;99.90;;;;;;5014185;28;20309;-79
2022/06/18 01:34:06;;;;;;;4.82;4.20;;;17.20;99.90;;;;;;5014476;28;20648;-79
2022/06/18 01:36:33;;;;;;;4.88;4.20;;;17.20;99.90;;;;;;5028262;28;20714;-79
2022/06/18 01:39:01;;;;;;;4.22;3.92;;;17.10;99.90;;;;;;5032236;28;20172;-79
2022/06/18 01:41:51;;;;;;;4.90;4.50;;;17.10;99.90;;;;;;5014377;28;20173;-79
2022/06/18 01:44:28;;;;;;;3.92;3.72;;;17.10;99.90;;;;;;5029099;28;20285;-79
2022/06/18 01:46:59;;;;;;;4.40;4.10;;;17.00;99.90;;;;;;5014335;28;20586;-79
2022/06/18 01:49:41;;;;;;;4.80;3.92;;;17.00;99.90;;;;;;5023945;28;20193;-79
2022/06/18 01:52:09;;;;;;;4.60;4.20;;;17.00;99.90;;;;;;5015402;28;20264;-80
2022/06/18 01:54:56;;;;;;;4.40;4.10;;;16.90;99.90;;;;;;5017960;28;20193;-80
2022/06/18 01:57:26;;;;;;;4.20;3.90;;;17.00;99.90;;;;;;5016823;28;20200;-79
2022/06/18 01:59:56;;;;;;;4.13;3.72;;;17.00;99.90;;;;;;5023097;28;20215;-79
2022/06/18 02:02:22;;;;;;;3.47;3.28;;;16.90;99.90;;;;;;5040144;28;20197;-79
2022/06/18 02:04:47;;;;;;;4.35;3.95;;;16.90;99.90;;;;;;5034470;28;20191;-80
2022/06/18 02:07:15;;;;;;;4.05;3.85;;;16.90;99.90;;;;;;5029130;28;20319;-79
2022/06/18 02:09:55;;;;;;;3.78;3.58;;;17.00;99.90;;;;;;5033627;28;20580;-79
2022/06/18 02:12:24;;;;;;;3.80;3.60;;;17.00;99.90;;;;;;5021738;28;20207;-79
2022/06/18 02:14:54;;;;;;;5.45;4.22;;;17.00;99.90;;;;;;5015013;28;20209;-79
2022/06/18 02:17:22;;;;;;;3.88;3.58;;;17.00;99.90;;;;;;5037024;28;20207;-79
2022/06/18 02:19:56;;;;;;;4.80;4.03;;;17.00;99.90;;;;;;5039892;28;20927;-78
2022/06/18 02:22:26;;;;;;;4.43;4.13;;;16.90;99.90;;;;;;5032688;28;20209;-79
2022/06/18 02:24:52;;;;;;;7.68;4.35;;;17.00;99.90;;;;;;5032056;28;20181;-79
2022/06/18 02:27:18;;;;;;;4.15;3.83;;;17.00;99.90;;;;;;5042788;28;20194;-78
2022/06/18 02:29:45;;;;;;;4.07;3.78;;;16.90;99.90;;;;;;5040816;28;20186;-79
2022/06/18 02:32:41;;;;;;;4.50;4.10;;;16.90;99.90;;;;;;5050391;28;20207;-79
2022/06/18 02:35:14;;;;;;;5.40;4.22;;;17.00;99.90;;;;;;5034584;28;20235;-79
2022/06/18 02:37:40;;;;;;;5.20;4.70;;;16.90;99.90;;;;;;5028775;28;20660;-79
2022/06/18 02:40:26;;;;;;;4.50;4.10;;;16.90;99.90;;;;;;5032398;28;20250;-79
2022/06/18 02:42:55;;;;;;;3.85;3.63;;;16.80;99.90;;;;;;5030417;28;20208;-79
2022/06/18 02:45:24;;;;;;;4.55;4.15;;;16.80;99.90;;;;;;5030628;28;20728;-79
2022/06/18 02:47:53;;;;;;;4.28;3.85;;;16.80;99.90;;;;;;5040785;28;20523;-79
2022/06/18 02:50:21;;;;;;;4.82;4.22;;;16.80;99.90;;;;;;5041356;28;20179;-78
2022/06/18 02:52:50;;;;;;;4.32;3.97;;;16.70;99.90;;;;;;5037553;28;20291;-78
2022/06/18 02:55:47;;;;;;;4.82;4.43;;;16.70;99.90;;;;;;5050411;28;20200;-78
2022/06/18 02:58:20;;;;;;;4.82;4.10;;;16.60;99.90;;;;;;5041518;28;20184;-78
2022/06/18 03:00:57;;;;;;;4.25;4.05;;;16.60;99.90;;;;;;5016550;28;20181;-79
2022/06/18 03:03:25;;;;;;;4.57;4.22;;;16.40;99.90;;;;;;5011741;28;20605;-78
2022/06/18 03:05:54;;;;;;;4.53;4.22;;;16.30;99.90;;;;;;5010887;28;20251;-78
2022/06/18 03:08:22;;;;;;;4.47;4.25;;;16.30;99.90;;;;;;5012115;28;20176;-78
2022/06/18 03:13:33;;;;;;;4.70;4.30;;;16.20;99.90;;;;;;5039466;28;20257;-79
2022/06/18 03:15:58;;;;;;;4.47;4.05;;;16.10;99.90;;;;;;5039955;28;20715;-79
2022/06/18 03:18:28;;;;;;;5.05;4.63;;;16.20;99.90;;;;;;5046510;28;20180;-79
2022/06/18 03:20:57;;;;;;;4.90;4.22;;;16.20;99.90;;;;;;5036240;28;20176;-78
2022/06/18 03:23:23;;;;;;;5.20;4.88;;;16.10;99.90;;;;;;5030788;28;20204;-78
2022/06/18 03:25:50;;;;;;;4.40;4.20;;;16.20;99.90;;;;;;5028400;28;20184;-78
2022/06/18 03:28:17;;;;;;;6.88;5.10;;;16.20;99.90;;;;;;5011875;28;20220;-79
2022/06/18 03:30:42;;;;;;;4.53;4.22;;;16.20;99.90;;;;;;5012006;28;20272;-78
2022/06/18 03:33:09;;;;;;;4.85;4.45;;;16.30;99.90;;;;;;5024979;28;20279;-79
2022/06/18 03:35:35;;;;;;;5.25;4.35;;;16.30;99.90;;;;;;5018899;28;20188;-78
2022/06/18 03:38:01;;;;;;;5.25;4.85;;;16.20;99.90;;;;;;5016324;28;20165;-79
2022/06/18 03:40:27;;;;;;;5.47;4.88;;;16.20;99.90;;;;;;5016321;28;20261;-79
2022/06/18 03:42:53;;;;;;;5.72;5.05;;;16.30;99.90;;;;;;5015930;28;20213;-79
2022/06/18 03:45:19;;;;;;;5.30;4.90;;;16.40;99.90;;;;;;5029126;28;20238;-79
2022/06/18 03:47:46;;;;;;;5.22;4.82;;;16.40;99.90;;;;;;5035405;28;20181;-79
2022/06/18 03:50:18;;;;;;;5.53;5.07;;;16.40;99.90;;;;;;5035636;28;20180;-79
2022/06/18 03:52:44;;;;;;;5.10;4.60;;;16.40;99.90;;;;;;5021425;28;20568;-79
2022/06/18 03:55:13;;;;;;;4.72;4.43;;;16.40;99.90;;;;;;5025389;28;20267;-79
2022/06/18 03:57:39;;;;;;;7.90;4.93;;;16.40;99.90;;;;;;5019296;28;20268;-79
2022/06/18 04:00:09;;;;;;;5.07;4.68;;;16.40;99.90;;;;;;5015774;28;20636;-79
2022/06/18 04:02:35;;;;;;;4.88;4.47;;;16.40;99.90;;;;;;5015094;28;20280;-79
2022/06/18 04:05:00;;;;;;;4.90;4.38;;;16.50;99.90;;;;;;5024349;28;20275;-79
2022/06/18 04:07:26;;;;;;;5.38;4.88;;;16.50;99.90;;;;;;5032130;28;20234;-79
2022/06/18 04:09:53;;;;;;;5.63;4.70;;;16.50;99.90;;;;;;5038823;28;20598;-79
2022/06/18 04:12:20;;;;;;;5.35;5.00;;;16.50;99.90;;;;;;5039429;28;20580;-79
2022/06/18 04:14:45;;;;;;;4.55;4.03;;;16.50;99.90;;;;;;5046104;28;20203;-79
2022/06/18 04:17:15;;;;;;;4.68;4.38;;;16.60;99.90;;;;;;5042420;28;20199;-82
2022/06/18 04:19:42;;;;;;;4.50;4.30;;;16.60;99.90;;;;;;5048450;28;20169;-82
2022/06/18 04:22:08;;;;;;;5.32;4.82;;;16.70;99.90;;;;;;5033420;28;20201;-84
2022/06/18 04:24:35;;;;;;;5.05;4.65;;;16.70;99.90;;;;;;5053046;28;20184;-83
2022/06/18 04:27:01;;;;;;;5.22;4.85;;;16.80;99.90;;;;;;5048263;28;20186;-83
2022/06/18 04:29:28;;;;;;;5.30;5.00;;;16.90;99.90;;;;;;5048216;28;20234;-81
2022/06/18 04:31:54;;;;;;;4.82;4.53;;;16.90;99.90;;;;;;5047590;28;20287;-84
2022/06/18 04:34:20;;;;;;;5.68;5.05;;;16.90;99.90;;;;;;5038046;28;20281;-83
2022/06/18 04:36:45;;;;;;;5.18;4.72;;;17.00;99.90;;;;;;5027472;28;20194;-84
2022/06/18 04:39:12;;;;;;;6.45;5.03;;;17.10;99.90;;;;;;5028971;28;20182;-83
2022/06/18 04:41:38;;;;;;;5.45;4.85;;;17.10;99.90;;;;;;5046026;28;20192;-82
2022/06/18 04:44:04;;;;;;;5.75;5.28;;;17.20;99.90;;;;;;5032546;28;20249;-83
2022/06/18 04:46:30;;;;;;;5.68;5.18;;;17.30;99.90;;;;;;5024933;28;20189;-82
2022/06/18 04:48:56;;;;;;;5.90;5.43;;;17.40;99.90;;;;;;5031702;28;20181;-82
2022/06/18 04:51:22;;;;;;;6.05;5.40;;;17.40;99.90;;;;;;5045538;28;20251;-83
2022/06/18 04:53:48;;;;;;;4.95;4.57;;;17.50;99.90;;;;;;5026488;28;20201;-82
2022/06/18 04:56:14;;;;;;;5.13;4.78;;;17.50;99.90;;;;;;5050165;28;20204;-84
2022/06/18 04:58:40;;;;;;;4.90;4.50;;;17.60;99.90;;;;;;5043918;28;20183;-83
2022/06/18 05:01:06;;;;;;;5.45;4.75;;;17.70;99.90;;;;;;5053332;28;20263;-84
2022/06/18 05:03:32;;;;;;;5.20;4.70;;;17.70;99.90;;;;;;5038355;28;20227;-81
2022/06/18 05:05:58;;;;;;;4.88;4.57;;;17.80;99.90;;;;;;5036644;28;20187;-81
2022/06/18 05:08:25;;;;;;;4.72;4.32;;;17.90;99.90;;;;;;5046457;28;20181;-76
2022/06/18 05:10:52;;;;;;;5.22;4.72;;;17.90;99.90;;;;;;5021398;28;20189;-76
2022/06/18 05:13:18;;;;;;;5.78;5.20;;;18.00;99.90;;;;;;5023040;28;20559;-75
2022/06/18 05:15:45;;;;;;;5.10;4.70;;;18.10;99.90;;;;;;5024042;28;20175;-77
2022/06/18 05:18:14;;;;;;;6.80;4.53;;;18.20;99.90;;;;;;5022699;28;20710;-76
2022/06/18 05:20:40;;;;;;;4.43;4.10;;;18.40;99.90;;;;;;5023304;28;20173;-75
2022/06/18 05:23:06;;;;;;;4.60;4.20;;;18.40;99.90;;;;;;5033102;28;20768;-76
2022/06/18 05:25:31;;;;;;;5.28;4.78;;;18.60;99.90;;;;;;5034193;28;20184;-77
2022/06/18 05:27:57;;;;;;;4.10;3.80;;;18.60;99.90;;;;;;5032759;28;20647;-80
2022/06/18 05:30:27;;;;;;;9.07;4.82;;;18.80;99.90;;;;;;5020556;28;20223;-77
2022/06/18 05:32:53;;;;;;;5.07;4.65;;;18.80;99.90;;;;;;5024229;28;20209;-76
2022/06/18 05:35:19;;;;;;;4.75;4.35;;;18.90;99.90;;;;;;5022654;28;20199;-76
2022/06/18 05:37:46;;;;;;;5.00;4.57;;;19.00;99.90;;;;;;5025029;28;20169;-76
2022/06/18 05:40:13;;;;;;;4.80;4.20;;;19.00;99.90;;;;;;5018237;28;20295;-76
2022/06/18 05:42:39;;;;;;;4.93;4.53;;;19.10;99.90;;;;;;5033588;28;20184;-79
2022/06/18 05:45:05;;;;;;;4.55;4.25;;;19.20;99.90;;;;;;5024174;28;20644;-75
2022/06/18 05:47:32;;;;;;;4.32;3.92;;;19.30;99.90;;;;;;5035913;28;20189;-75
2022/06/18 05:49:59;;;;;;;4.95;4.50;;;19.30;99.90;;;;;;5041912;28;20271;-76
2022/06/18 05:52:26;;;;;;;5.03;4.63;;;19.40;99.90;;;;;;5037052;28;20199;-75
2022/06/18 05:54:52;;;;;;;7.40;4.57;;;19.50;99.90;;;;;;5036369;28;20216;-75
2022/06/18 05:57:19;;;;;;;5.85;4.65;;;19.60;99.90;;;;;;5021249;28;20189;-75
2022/06/18 05:59:45;;;;;;;4.35;4.15;;;19.60;99.90;;;;;;5033077;28;20173;-75
2022/06/18 06:02:12;;;;;;;4.85;4.38;;;19.70;99.90;;;;;;5015474;28;20282;-75
2022/06/18 06:04:39;;;;;;;4.30;4.00;;;19.80;99.90;;;;;;5013913;28;20177;-75
2022/06/18 06:07:06;;;;;;;4.35;3.95;;;19.80;99.90;;;;;;5016382;28;20177;-75
2022/06/18 06:12:16;;;;;;;4.40;3.97;;;20.00;99.90;;;;;;5026349;28;20236;-75
2022/06/18 06:14:42;;;;;;;4.55;4.22;;;20.10;99.90;;;;;;5038576;28;20244;-75
2022/06/18 06:17:19;;;;;;;4.78;4.30;;;20.30;99.90;;;;;;5018575;28;20244;-75
2022/06/18 06:19:45;;;;;;;5.82;4.32;;;20.30;99.90;;;;;;5012865;28;20238;-77
2022/06/18 06:22:10;;;;;;;4.80;4.40;;;20.40;99.90;;;;;;5013023;28;20655;-74
2022/06/18 06:24:36;;;;;;;4.80;4.35;;;20.50;99.90;;;;;;5013055;28;20525;-75
2022/06/18 06:27:02;;;;;;;4.72;4.22;;;20.50;99.90;;;;;;5023093;28;20191;-75
2022/06/18 06:29:28;;;;;;;4.05;3.60;;;20.70;99.90;;;;;;5043266;28;20192;-75
2022/06/18 06:31:54;;;;;;;4.45;3.80;;;20.80;99.90;;;;;;5024785;28;20220;-78
2022/06/18 06:34:19;;;;;;;4.68;4.32;;;20.90;99.90;;;;;;5032205;28;20204;-75
2022/06/18 06:36:46;;;;;;;4.40;4.07;;;20.90;99.90;;;;;;5031952;28;20675;-75
2022/06/18 06:39:11;;;;;;;4.18;3.85;;;21.00;99.90;;;;;;5031473;28;20231;-75
2022/06/18 06:41:37;;;;;;;3.80;3.50;;;21.00;99.90;;;;;;5019038;28;20288;-75
2022/06/18 06:44:03;;;;;;;4.45;3.53;;;21.00;99.90;;;;;;5012544;28;20188;-75
2022/06/18 06:46:29;;;;;;;3.95;3.60;;;21.00;99.90;;;;;;5012846;28;20575;-75
2022/06/18 06:48:55;;;;;;;3.88;3.58;;;21.20;99.90;;;;;;5012625;28;20181;-75
2022/06/18 06:51:24;;;;;;;4.97;3.67;;;21.30;99.90;;;;;;5013113;28;20177;-75
2022/06/18 06:53:51;;;;;;;3.63;3.30;;;21.30;99.90;;;;;;5012703;28;20197;-75
2022/06/18 06:59:05;;;;;;;3.88;3.67;;;21.40;99.90;;;;;;5012717;28;20563;-75
2022/06/18 07:01:31;;;;;;;3.95;3.60;;;21.50;99.90;;;;;;5020866;28;20165;-75
2022/06/18 07:03:57;;;;;;;3.67;3.30;;;21.60;99.90;;;;;;5031803;28;20172;-75
2022/06/18 07:06:23;;;;;;;3.03;2.90;;;21.70;99.90;;;;;;5029260;28;20268;-75
2022/06/18 07:08:50;;;;;;;3.60;3.40;;;21.80;99.90;;;;;;5010982;28;20200;-76
2022/06/18 07:11:16;;;;;;;4.00;3.70;;;22.00;99.90;;;;;;5018112;28;20195;-75
2022/06/18 07:13:41;;;;;;;3.53;3.22;;;22.10;99.90;;;;;;5030227;28;20258;-75
2022/06/18 07:16:10;;;;;;;7.10;3.38;;;22.20;99.90;;;;;;5030705;28;20267;-75
2022/06/18 07:18:37;;;;;;;3.78;3.47;;;22.40;99.90;;;;;;5031777;28;20168;-75
2022/06/18 07:21:05;;;;;;;3.75;3.42;;;22.50;99.90;;;;;;5027040;28;20225;-75
2022/06/18 07:23:31;;;;;;;4.78;3.80;;;22.60;99.90;;;;;;5010171;28;20197;-75
2022/06/18 07:25:57;;;;;;;3.25;3.13;;;22.70;99.90;;;;;;5011547;28;20177;-75
2022/06/18 07:28:24;;;;;;;3.80;3.50;;;22.80;99.90;;;;;;5011827;28;20641;-75
2022/06/18 07:30:50;;;;;;;3.60;3.30;;;22.80;99.90;;;;;;5013796;28;20213;-75
2022/06/18 07:33:21;;;;;;;3.47;3.20;;;22.90;99.90;;;;;;5013694;28;20212;-75
2022/06/18 07:35:47;;;;;;;3.13;2.83;;;23.10;99.90;;;;;;5011745;28;20637;-75
2022/06/18 07:38:13;;;;;;;3.70;3.20;;;23.20;99.90;;;;;;5011954;28;20252;-75
2022/06/18 07:40:47;;;;;;;3.55;3.28;;;23.30;99.90;;;;;;5013507;28;20684;-75
2022/06/18 07:43:41;;;;;;;4.07;3.45;;;23.30;99.90;;;;;;5010995;28;20204;-75
2022/06/18 07:46:10;;;;;;;3.72;3.42;;;23.40;99.90;;;;;;5011610;28;20184;-75
2022/06/18 07:48:35;;;;;;;3.85;3.13;;;23.50;99.90;;;;;;5011753;28;20184;-75
2022/06/18 07:51:03;;;;;;;3.70;3.45;;;23.70;99.90;;;;;;5014828;28;20605;-75
2022/06/18 07:53:29;;;;;;;3.35;3.15;;;23.80;99.90;;;;;;5030877;28;20216;-75
2022/06/18 07:55:56;;;;;;;5.07;3.25;;;23.90;99.90;;;;;;5031355;28;20173;-75
2022/06/18 07:58:22;;;;;;;6.03;3.50;;;24.00;99.90;;;;;;5023399;28;20174;-75
2022/06/18 08:00:48;;;;;;;3.40;3.17;;;24.10;99.90;;;;;;5011503;28;20676;-75
2022/06/18 08:03:16;;;;;;;3.40;3.10;;;24.20;99.90;;;;;;5022424;28;20240;-75
2022/06/18 08:05:43;;;;;;;3.67;3.47;;;24.30;99.90;;;;;;5011451;28;20656;-76
2022/06/18 08:08:09;;;;;;;3.50;3.20;;;24.40;99.90;;;;;;5015052;28;20192;-76
2022/06/18 08:10:36;;;;;;;2.83;2.72;;;24.50;99.90;;;;;;5019427;28;20222;-78
2022/06/18 08:13:03;;;;;;;3.63;3.30;;;24.50;99.90;;;;;;5027859;28;20195;-75
2022/06/18 08:15:29;;;;;;;4.40;3.42;;;24.50;99.90;;;;;;5011326;28;20724;-73
2022/06/18 08:17:55;;;;;;;3.42;3.13;;;24.70;99.90;;;;;;5011059;28;20196;-73
2022/06/18 08:20:20;;;;;;;3.22;3.03;;;24.80;99.90;;;;;;5021233;28;20178;-73
2022/06/18 08:22:48;;;;;;;3.83;3.50;;;24.90;99.90;;;;;;5014548;28;20553;-73
2022/06/18 08:25:17;;;;;;;3.67;3.38;;;25.00;99.90;;;;;;5020186;28;20187;-73
2022/06/18 08:27:43;;;;;;;4.32;3.17;;;25.20;99.90;;;;;;5026003;28;20280;-74
2022/06/18 08:30:10;;;;;;;3.60;3.30;;;25.30;99.90;;;;;;5028626;28;20204;-73
2022/06/18 08:32:36;;;;;;;4.00;3.70;;;25.30;99.90;;;;;;5020967;28;20216;-73
2022/06/18 08:35:01;;;;;;;3.40;3.20;;;25.40;99.90;;;;;;5020350;28;21075;-73
2022/06/18 08:37:29;;;;;;;3.70;3.40;;;25.40;99.90;;;;;;5019865;28;20264;-74
2022/06/18 08:39:57;;;;;;;4.60;3.30;;;25.50;99.90;;;;;;5020996;28;20252;-73
2022/06/18 08:42:44;;;;;;;3.33;3.03;;;25.60;99.90;;;;;;5013588;28;20608;-73
2022/06/18 08:45:15;;;;;;;3.65;3.25;;;25.60;99.90;;;;;;5014037;28;20211;-73
2022/06/18 08:48:03;;;;;;;3.22;3.03;;;25.70;99.90;;;;;;5013669;28;20185;-73
2022/06/18 08:50:41;;;;;;;3.88;3.30;;;25.70;99.90;;;;;;5014995;28;20695;-73
2022/06/18 08:53:13;;;;;;;9.73;3.53;;;25.80;99.90;;;;;;5031661;28;20223;-73
2022/06/18 08:55:57;;;;;;;4.15;3.40;;;25.90;99.90;;;;;;5037628;28;20542;-73
2022/06/18 08:58:38;;;;;;;3.00;2.90;;;26.00;99.90;;;;;;5022652;28;20188;-73
2022/06/18 09:01:22;;;;;;;3.00;2.80;;;26.20;99.90;;;;;;5025819;28;20181;-73
2022/06/18 09:04:06;;;;;;;3.13;2.92;;;26.40;99.90;;;;;;5025009;28;20188;-73
2022/06/18 09:06:57;;;;;;;3.95;2.95;;;26.60;99.90;;;;;;5024873;28;20272;-73
2022/06/18 09:09:44;;;;;;;3.03;2.50;;;26.80;99.90;;;;;;5023473;28;20655;-73
2022/06/18 09:12:15;;;;;;;2.90;2.60;;;26.70;98.80;;;;;;5037848;28;20213;-73
2022/06/18 09:15:11;;;;;;;2.90;2.70;;;26.70;97.10;;;;;;5025624;28;20294;-73
2022/06/18 09:18:06;;;;;;;4.57;2.72;;;26.80;99.10;;;;;;5039462;28;20259;-73
2022/06/18 09:20:43;;;;;;;2.92;2.70;;;27.00;99.20;;;;;;5022927;28;20181;-72
2022/06/18 09:23:19;;;;;;;2.45;2.35;;;27.10;97.80;;;;;;5021241;28;20210;-73
2022/06/18 09:25:49;;;;;;;2.70;2.50;;;27.30;98.70;;;;;;5022026;28;20246;-72
2022/06/18 09:28:27;;;;;;;3.83;3.00;;;27.60;98.80;;;;;;5021553;28;20276;-73
2022/06/18 09:31:36;;;;;;;3.00;2.80;;;27.80;96.00;;;;;;5024114;28;20197;-73
2022/06/18 09:34:20;;;;;;;2.58;2.47;;;28.10;94.00;;;;;;5006628;28;20688;-73
2022/06/18 09:36:52;;;;;;;4.28;2.70;;;28.20;94.60;;;;;;5021816;28;20208;-74
2022/06/18 09:39:48;;;;;;;2.80;2.50;;;28.90;93.90;;;;;;5023065;28;20181;-73
2022/06/18 09:42:26;;;;;;;2.30;2.20;;;31.10;91.70;;;;;;5031767;28;20204;-74
2022/06/18 09:45:19;;;;;;;3.13;2.92;;;33.60;83.50;;;;;;5024797;28;20207;-73
2022/06/18 09:47:48;;;;;;;3.05;2.42;;;36.20;65.90;;;;;;5021749;28;20185;-75
2022/06/18 09:50:15;;;;;;;2.97;2.38;;;37.70;57.40;;;;;;5032243;28;20215;-74
2022/06/18 09:52:45;;;;;;;3.10;2.08;;;38.30;56.90;;;;;;5021987;28;20783;-74
2022/06/18 09:55:36;;;;;;;2.30;2.20;;;39.00;54.00;;;;;;5028306;28;20900;-72
2022/06/18 09:58:04;;;;;;;1.77;1.70;;;40.20;51.80;;;;;;5030574;28;20187;-73
2022/06/18 10:00:31;;;;;;;2.33;2.22;;;40.60;47.30;;;;;;5032324;28;20195;-73
2022/06/18 10:03:04;;;;;;;2.10;2.00;;;41.00;47.20;;;;;;5047570;28;20191;-72
2022/06/18 10:08:36;;;;;;;2.65;2.42;;;41.80;47.80;;;;;;5013275;28;20603;-73
2022/06/18 10:11:09;;;;;;;4.00;2.25;;;42.60;45.40;;;;;;5013152;28;20235;-73
2022/06/18 10:13:49;;;;;;;2.47;2.28;;;43.10;45.10;;;;;;5012608;28;20242;-73
2022/06/18 10:16:40;;;;;;;2.05;1.95;;;43.30;43.60;;;;;;5018222;28;20206;-73
2022/06/18 10:19:47;;;;;;;2.00;1.90;;;43.20;43.50;;;;;;5020599;28;20654;-74
2022/06/18 10:22:58;;;;;;;2.25;2.03;;;43.30;43.90;;;;;;5014325;28;20217;-74
2022/06/18 10:25:32;;;;;;;2.58;2.10;;;43.70;43.60;;;;;;4962932;28;20534;-73
2022/06/18 10:28:06;;;;;;;1.77;1.67;;;44.10;41.80;;;;;;4965914;28;20529;-73
2022/06/18 10:30:48;;;;;;;1.63;1.60;;;43.70;42.00;;;;;;5006468;28;20547;-73
2022/06/18 10:33:27;;;;;;;1.70;1.60;;;43.10;42.90;;;;;;5025542;28;20207;-73
2022/06/18 10:36:01;;;;;;;1.80;1.70;;;43.40;42.90;;;;;;5023534;28;20580;-74
2022/06/18 10:39:01;;;;;;;1.70;1.70;;;44.10;41.90;;;;;;5017637;28;20186;-75
2022/06/18 10:41:35;;;;;;;2.30;2.10;;;44.40;40.70;;;;;;5029663;28;20573;-73
2022/06/18 10:44:25;;;;;;;2.72;1.77;;;43.70;42.70;;;;;;5030231;28;20586;-73
2022/06/18 10:47:20;;;;;;;1.90;1.80;;;44.10;42.30;;;;;;5019275;28;20181;-74
2022/06/18 10:49:47;;;;;;;3.40;1.80;;;43.90;42.50;;;;;;5038366;28;20195;-74
2022/06/18 10:52:23;;;;;;;2.92;1.90;;;43.90;41.50;;;;;;5039562;28;20226;-74
2022/06/18 10:54:51;;;;;;;2.45;1.70;;;43.50;42.00;;;;;;5025589;28;20208;-73
2022/06/18 10:57:26;;;;;;;1.90;1.80;;;43.60;41.70;;;;;;5023950;28;20747;-73
2022/06/18 10:59:52;;;;;;;2.13;1.92;;;44.20;40.40;;;;;;5024335;28;20183;-73
2022/06/18 11:02:33;;;;;;;1.95;1.85;;;44.40;39.60;;;;;;5019187;28;20775;-73
2022/06/18 11:05:04;;;;;;;1.75;1.65;;;43.50;42.10;;;;;;5012309;28;20180;-73
2022/06/18 11:07:33;;;;;;;2.10;2.00;;;43.00;41.60;;;;;;5012743;28;20188;-73
2022/06/18 11:10:33;;;;;;;1.70;1.60;;;42.80;42.70;;;;;;5015951;28;20733;-73
2022/06/18 11:13:03;;;;;;;1.90;1.80;;;42.80;41.50;;;;;;5014640;28;20192;-73
2022/06/18 11:15:32;;;;;;;3.05;2.78;;;43.20;39.90;;;;;;5012704;28;20204;-73
2022/06/18 11:17:58;;;;;;;1.70;1.60;;;42.60;40.90;;;;;;5014279;28;20721;-73
2022/06/18 11:20:26;;;;;;;1.73;1.73;;;42.80;42.50;;;;;;5012050;28;20192;-72
2022/06/18 11:22:55;;;;;;;1.55;1.45;;;43.60;41.30;;;;;;5011674;28;20192;-73
2022/06/18 11:25:32;;;;;;;1.90;1.63;;;44.20;41.20;;;;;;5011963;28;20717;-72
2022/06/18 11:28:02;;;;;;;1.98;1.80;;;44.20;40.80;;;;;;5021733;28;20655;-73
2022/06/18 11:30:41;;;;;;;1.92;1.80;;;44.30;41.30;;;;;;5019413;28;20192;-73
2022/06/18 11:33:52;;;;;;;1.90;1.80;;;44.40;39.10;;;;;;5018122;28;20283;-73
2022/06/18 11:36:19;;;;;;;1.70;1.58;;;44.60;38.70;;;;;;5015555;28;20184;-72
2022/06/18 11:38:57;;;;;;;1.60;1.50;;;44.40;37.70;;;;;;5016504;28;20185;-73
2022/06/18 11:41:40;;;;;;;1.30;1.30;;;44.00;38.20;;;;;;5023060;28;20850;-73
2022/06/18 11:44:19;;;;;;;1.70;1.55;;;44.30;37.50;;;;;;5027319;28;20187;-73
2022/06/18 11:47:12;;;;;;;1.40;1.40;;;44.20;37.10;;;;;;5017719;28;20180;-73
2022/06/18 11:49:49;;;;;;;1.77;1.40;;;43.20;36.50;;;;;;5020449;28;20181;-73
2022/06/18 11:52:46;;;;;;;1.25;1.23;;;42.70;35.20;;;;;;5024379;28;20562;-73
2022/06/18 11:55:26;;;;;;;1.40;1.40;;;42.80;35.60;;;;;;5020762;28;20711;-74
2022/06/18 11:58:17;;;;;;;1.20;1.20;;;42.80;37.10;;;;;;5023754;28;20538;-73
2022/06/18 12:00:50;;;;;;;2.95;1.70;;;42.50;36.80;;;;;;5019558;28;20187;-74
2022/06/18 12:03:38;;;;;;;2.70;1.80;;;42.30;37.10;;;;;;5019617;28;20210;-73
2022/06/18 12:06:13;;;;;;;1.40;1.30;;;42.90;34.90;;;;;;5024076;28;20176;-74
2022/06/18 12:08:40;;;;;;;1.20;1.20;;;43.70;33.10;;;;;;5024167;28;20175;-73
2022/06/18 12:11:34;;;;;;;1.45;1.15;;;43.70;33.40;;;;;;5023138;28;20678;-73
2022/06/18 12:14:07;;;;;;;2.05;1.27;;;44.00;33.20;;;;;;5023555;28;20259;-73
2022/06/18 12:16:45;;;;;;;1.30;1.20;;;43.70;35.40;;;;;;5023483;28;20177;-73
2022/06/18 12:19:24;;;;;;;1.60;1.50;;;44.40;33.30;;;;;;5021129;28;20525;-73
2022/06/18 12:22:10;;;;;;;2.45;1.50;;;44.60;33.70;;;;;;5024379;28;20192;-74
2022/06/18 12:24:43;;;;;;;1.52;1.42;;;44.30;33.70;;;;;;5024988;28;20320;-73
2022/06/18 12:27:24;;;;;;;2.88;1.63;;;44.50;33.10;;;;;;5024462;28;20212;-74
2022/06/18 12:30:24;;;;;;;1.20;1.20;;;44.10;33.80;;;;;;5019588;28;20200;-73
2022/06/18 12:33:01;;;;;;;3.00;1.48;;;44.40;33.50;;;;;;5016553;28;20215;-74
2022/06/18 12:35:53;;;;;;;1.98;1.20;;;44.80;33.90;;;;;;5024222;28;20250;-74
2022/06/18 12:38:35;;;;;;;3.85;1.67;;;45.30;33.80;;;;;;5024857;28;20618;-73
2022/06/18 12:41:41;;;;;;;2.53;1.45;;;47.60;31.10;;;;;;5021415;28;20165;-73
2022/06/18 12:44:22;;;;;;;1.30;1.20;;;49.80;29.70;;;;;;5023454;28;20176;-73
2022/06/18 12:47:00;;;;;;;1.38;1.23;;;51.50;28.70;;;;;;5023973;28;20184;-74
2022/06/18 12:49:35;;;;;;;1.27;1.27;;;52.10;29.30;;;;;;5030060;28;20175;-74
2022/06/18 12:52:26;;;;;;;1.38;1.20;;;52.50;28.70;;;;;;5026197;28;20200;-74
2022/06/18 12:55:19;;;;;;;1.70;1.38;;;54.10;27.70;;;;;;5021825;28;21037;-73
2022/06/18 12:58:02;;;;;;;1.70;1.40;;;55.30;26.80;;;;;;5021256;28;20181;-74
2022/06/18 13:00:50;;;;;;;2.90;1.48;;;55.90;26.70;;;;;;5022260;28;20247;-74
2022/06/18 13:04:14;;;;;;;2.78;1.38;;;56.30;26.50;;;;;;5022705;28;20192;-74
2022/06/18 13:07:04;;;;;;;1.38;1.17;;;57.10;25.50;;;;;;4978369;28;20218;-75
2022/06/18 13:09:48;;;;;;;1.65;1.17;;;56.80;26.30;;;;;;5021562;28;20185;-75
2022/06/18 13:12:52;;;;;;;3.75;1.42;;;57.40;25.40;;;;;;5026119;28;20200;-76
2022/06/18 13:15:38;;;;;;;1.13;1.13;;;57.20;25.50;;;;;;5022205;28;20683;-74
2022/06/18 13:18:18;;;;;;;1.65;1.20;;;57.90;25.50;;;;;;5042452;28;20168;-74
2022/06/18 13:20:49;;;;;;;2.10;1.20;;;56.80;25.70;;;;;;5034567;28;20204;-74
2022/06/18 13:29:08;;;;;;;1.23;1.23;;;58.70;25.50;;;;;;5030426;28;20189;-75
2022/06/18 13:32:01;;;;;;;1.67;1.33;;;59.30;25.10;;;;;;5020998;28;20195;-75
2022/06/18 13:34:48;;;;;;;1.55;1.15;;;60.50;24.30;;;;;;5032546;28;20207;-76
2022/06/18 13:37:21;;;;;;;1.33;1.23;;;61.70;23.90;;;;;;5033140;28;20206;-75